Time;durP1;ratioP1;P1;durP2;ratioP2;P2;SDS_P1;SDS_P2;PMS_P1;PMS_P2;Temp;Humidity;BMP_temperature;BMP_pressure;BME280_temperature;BME280_humidity;BME280_pressure;Samples;Min_cycle;Max_cycle;Signal;HPM_P1;HPM_P2
2021/06/24 00:00:46;;;;;;;1.43;1.33;;;;;25.00;100951.00;;;;2070667;28;20725;-55
2021/06/24 00:01:47;;;;;;;1.88;1.77;;;;;25.00;100955.00;;;;2071338;28;20221;-57
2021/06/24 00:02:47;;;;;;;1.77;1.67;;;;;25.00;100949.00;;;;2067050;28;20591;-57
2021/06/24 00:03:47;;;;;;;2.10;1.73;;;;;25.00;100902.00;;;;2066136;28;20615;-58
2021/06/24 00:04:47;;;;;;;1.60;1.50;;;;;25.00;100952.00;;;;2071239;28;20609;-55
2021/06/24 00:05:48;;;;;;;1.97;1.77;;;;;25.00;100951.00;;;;2064551;28;20414;-56
2021/06/24 00:06:48;;;;;;;1.93;1.83;;;;;25.00;100951.00;;;;2063967;28;20265;-56
2021/06/24 00:07:49;;;;;;;1.47;1.37;;;;;25.00;100957.00;;;;2068345;28;20221;-57
2021/06/24 00:08:49;;;;;;;1.60;1.50;;;;;25.00;100954.00;;;;2072029;28;20209;-57
2021/06/24 00:09:49;;;;;;;1.60;1.50;;;;;25.00;100941.00;;;;2071882;28;20242;-57
2021/06/24 00:10:50;;;;;;;1.60;1.50;;;;;25.00;100948.00;;;;2068068;28;20211;-58
2021/06/24 00:11:51;;;;;;;1.95;1.75;;;;;25.00;100954.00;;;;2071268;28;20233;-58
2021/06/24 00:12:51;;;;;;;1.70;1.60;;;;;25.00;100946.00;;;;2064596;28;20211;-58
2021/06/24 00:13:51;;;;;;;1.70;1.60;;;;;25.00;100945.00;;;;2060260;28;20324;-58
2021/06/24 00:14:52;;;;;;;1.47;1.37;;;;;25.00;100949.00;;;;2063912;28;20222;-55
2021/06/24 00:15:53;;;;;;;1.60;1.50;;;;;25.00;100949.00;;;;2064013;28;20215;-58
2021/06/24 00:16:53;;;;;;;1.80;1.70;;;;;25.00;100950.00;;;;2066477;28;20587;-57
2021/06/24 00:17:53;;;;;;;1.40;1.30;;;;;25.00;100948.00;;;;2068223;28;20859;-57
2021/06/24 00:18:54;;;;;;;1.60;1.50;;;;;25.00;100944.00;;;;2066903;28;20647;-57
2021/06/24 00:19:54;;;;;;;1.50;1.40;;;;;25.00;100949.00;;;;2068109;28;20214;-57
2021/06/24 00:20:55;;;;;;;1.60;1.50;;;;;25.00;100942.00;;;;2071842;28;20217;-58
2021/06/24 00:21:55;;;;;;;1.60;1.50;;;;;25.00;100945.00;;;;2071221;28;20245;-57
2021/06/24 00:22:55;;;;;;;2.33;1.50;;;;;25.00;100948.00;;;;2071783;28;20242;-59
2021/06/24 00:23:56;;;;;;;1.67;1.57;;;;;25.00;100949.00;;;;2072242;28;20210;-58
2021/06/24 00:24:56;;;;;;;1.80;1.70;;;;;25.00;100948.00;;;;2068429;28;20219;-55
2021/06/24 00:25:56;;;;;;;1.90;1.73;;;;;25.00;100946.00;;;;2071039;28;20221;-57
2021/06/24 00:26:57;;;;;;;1.80;1.70;;;;;25.00;100949.00;;;;2071165;28;20225;-57
2021/06/24 00:27:57;;;;;;;1.80;1.63;;;;;25.00;100947.00;;;;2066772;28;20222;-57
2021/06/24 00:28:57;;;;;;;1.63;1.53;;;;;25.00;100951.00;;;;2063779;28;20242;-57
2021/06/24 00:29:58;;;;;;;1.60;1.50;;;;;25.00;100942.00;;;;2066463;28;20305;-57
2021/06/24 00:30:58;;;;;;;1.77;1.67;;;;;25.00;100941.00;;;;2071262;28;20214;-58
2021/06/24 00:32:00;;;;;;;1.77;1.67;;;;;25.00;100943.00;;;;2071815;28;20214;-57
2021/06/24 00:33:01;;;;;;;1.48;1.38;;;;;25.00;100945.00;;;;2071813;28;20319;-56
2021/06/24 00:34:01;;;;;;;1.50;1.40;;;;;25.00;100947.00;;;;2070342;28;20719;-57
2021/06/24 00:35:02;;;;;;;1.63;1.53;;;;;25.00;100946.00;;;;2063821;28;20314;-55
2021/06/24 00:36:02;;;;;;;2.47;1.80;;;;;25.00;100953.00;;;;2063580;28;20735;-57
2021/06/24 00:37:03;;;;;;;1.47;1.37;;;;;25.00;100945.00;;;;2063790;28;20299;-56
2021/06/24 00:38:04;;;;;;;1.77;1.67;;;;;25.00;100953.00;;;;2067589;28;20242;-57
2021/06/24 00:39:05;;;;;;;1.65;1.40;;;;;25.00;100948.00;;;;2063540;28;20225;-57
2021/06/24 00:40:07;;;;;;;1.90;1.80;;;;;25.00;100943.00;;;;2065008;28;20218;-57
2021/06/24 00:41:07;;;;;;;1.40;1.30;;;;;25.00;100943.00;;;;2065699;28;20210;-57
2021/06/24 00:42:07;;;;;;;1.60;1.40;;;;;25.00;100943.00;;;;2066660;28;20289;-57
2021/06/24 00:43:09;;;;;;;1.47;1.37;;;;;25.00;100938.00;;;;2074682;28;20205;-57
2021/06/24 00:44:10;;;;;;;1.75;1.65;;;;;25.00;100932.00;;;;2067360;28;20217;-58
2021/06/24 00:45:12;;;;;;;1.80;1.70;;;;;25.00;100947.00;;;;2063581;28;20215;-58
2021/06/24 00:46:12;;;;;;;1.33;1.23;;;;;25.00;100938.00;;;;2067102;28;20218;-63
2021/06/24 00:47:13;;;;;;;1.30;1.20;;;;;25.00;100950.00;;;;2066285;28;20577;-57
2021/06/24 00:48:13;;;;;;;1.73;1.63;;;;;25.00;100954.00;;;;2071763;28;20305;-57
2021/06/24 00:49:13;;;;;;;1.60;1.50;;;;;25.00;100944.00;;;;2066072;28;20222;-60
2021/06/24 00:50:14;;;;;;;1.70;1.60;;;;;25.00;100951.00;;;;2066695;28;20291;-59
2021/06/24 00:51:14;;;;;;;1.43;1.33;;;;;25.00;100947.00;;;;2067301;28;20218;-59
2021/06/24 00:52:15;;;;;;;1.50;1.40;;;;;25.00;100942.00;;;;2069773;28;20217;-58
2021/06/24 00:53:15;;;;;;;1.70;1.60;;;;;25.00;100956.00;;;;2063826;28;20214;-58
2021/06/24 00:54:16;;;;;;;2.30;1.83;;;;;25.00;100949.00;;;;2070811;28;20492;-57
2021/06/24 00:55:16;;;;;;;1.40;1.30;;;;;25.00;100947.00;;;;2070697;28;20237;-57
2021/06/24 00:56:30;;;;;;;1.60;1.43;;;;;25.00;100946.00;;;;2071555;28;20217;-59
2021/06/24 00:57:30;;;;;;;1.85;1.75;;;;;25.00;100948.00;;;;2064168;28;20209;-57
2021/06/24 00:58:31;;;;;;;2.10;1.30;;;;;25.00;100957.00;;;;2064020;28;20599;-57
2021/06/24 00:59:32;;;;;;;1.63;1.53;;;;;25.00;100950.00;;;;2062829;28;20687;-56
2021/06/24 01:00:33;;;;;;;1.30;1.20;;;;;25.00;100954.00;;;;2063108;28;20207;-57
2021/06/24 01:01:33;;;;;;;1.97;1.60;;;;;25.00;100950.00;;;;2069901;28;20714;-56
2021/06/24 01:02:34;;;;;;;1.43;1.33;;;;;25.00;100947.00;;;;2062919;28;20747;-57
2021/06/24 01:03:34;;;;;;;1.80;1.67;;;;;25.00;100953.00;;;;2070416;28;20206;-57
2021/06/24 01:04:35;;;;;;;1.30;1.20;;;;;25.00;100950.00;;;;2064268;28;20277;-57
2021/06/24 01:05:36;;;;;;;1.30;1.20;;;;;25.00;100958.00;;;;2059814;28;20754;-58
2021/06/24 01:06:36;;;;;;;2.28;1.60;;;;;25.00;100960.00;;;;2063614;28;20226;-58
2021/06/24 01:07:36;;;;;;;1.50;1.40;;;;;25.00;100958.00;;;;2062777;28;20784;-57
2021/06/24 01:08:37;;;;;;;1.63;1.50;;;;;25.00;100949.00;;;;2062962;28;20218;-57
2021/06/24 01:09:37;;;;;;;1.50;1.40;;;;;25.00;100945.00;;;;2063485;28;20293;-57
2021/06/24 01:10:38;;;;;;;2.10;1.80;;;;;25.00;100952.00;;;;2068872;28;20257;-57
2021/06/24 01:11:39;;;;;;;1.50;1.33;;;;;25.00;100952.00;;;;2065923;28;20318;-58
2021/06/24 01:12:40;;;;;;;1.60;1.50;;;;;25.00;100953.00;;;;2070025;28;20221;-59
2021/06/24 01:13:41;;;;;;;1.10;1.00;;;;;25.00;100948.00;;;;2071618;28;20648;-57
2021/06/24 01:14:41;;;;;;;1.52;1.42;;;;;25.00;100954.00;;;;2072603;28;20309;-56
2021/06/24 01:15:42;;;;;;;1.50;1.40;;;;;25.00;100957.00;;;;2082345;28;20214;-55
2021/06/24 01:16:42;;;;;;;1.67;1.57;;;;;25.00;100951.00;;;;2086447;28;20292;-55
2021/06/24 01:17:42;;;;;;;1.53;1.40;;;;;25.00;100946.00;;;;2063551;28;20573;-57
2021/06/24 01:18:43;;;;;;;1.73;1.37;;;;;25.00;100948.00;;;;2063543;28;20210;-57
2021/06/24 01:19:43;;;;;;;1.53;1.43;;;;;25.00;100948.00;;;;2067302;28;20587;-57
2021/06/24 01:20:44;;;;;;;1.57;1.47;;;;;24.90;100943.00;;;;2063556;28;20281;-56
2021/06/24 01:21:45;;;;;;;2.20;1.43;;;;;24.90;100948.00;;;;2065900;28;20699;-57
2021/06/24 01:22:45;;;;;;;1.30;1.20;;;;;25.00;100940.00;;;;2067719;28;20694;-57
2021/06/24 01:23:46;;;;;;;1.53;1.43;;;;;24.70;100947.00;;;;2064126;28;20210;-57
2021/06/24 01:24:46;;;;;;;1.80;1.70;;;;;25.00;100944.00;;;;2071430;28;20222;-56
2021/06/24 01:25:46;;;;;;;1.40;1.30;;;;;24.90;100945.00;;;;2071443;28;20446;-57
2021/06/24 01:26:47;;;;;;;1.53;1.43;;;;;25.00;100945.00;;;;2069972;28;20217;-57
2021/06/24 01:27:47;;;;;;;1.40;1.30;;;;;24.90;100943.00;;;;2070692;28;20258;-58
2021/06/24 01:28:48;;;;;;;1.70;1.60;;;;;25.00;100943.00;;;;2066999;28;20215;-57
2021/06/24 01:29:48;;;;;;;1.50;1.40;;;;;25.00;100948.00;;;;2066408;28;20214;-56
2021/06/24 01:30:49;;;;;;;1.53;1.30;;;;;25.00;100947.00;;;;2063879;28;20700;-56
2021/06/24 01:31:49;;;;;;;1.33;1.23;;;;;25.00;100941.00;;;;2064807;28;20672;-60
2021/06/24 01:32:50;;;;;;;1.50;1.40;;;;;24.90;100941.00;;;;2065771;28;20446;-59
2021/06/24 01:33:51;;;;;;;1.70;1.60;;;;;24.90;100943.00;;;;2068190;28;20642;-57
2021/06/24 01:34:51;;;;;;;1.40;1.30;;;;;25.00;100935.00;;;;2063507;28;20477;-57
2021/06/24 01:35:58;;;;;;;1.60;1.50;;;;;24.90;100937.00;;;;2067567;28;20217;-56
2021/06/24 01:36:59;;;;;;;1.52;1.42;;;;;25.00;100938.00;;;;2069243;28;20753;-57
2021/06/24 01:38:04;;;;;;;1.53;1.43;;;;;24.90;100930.00;;;;2069716;28;20245;-57
2021/06/24 01:39:06;;;;;;;2.03;1.92;;;;;25.00;100929.00;;;;2067484;28;20222;-56
2021/06/24 01:40:08;;;;;;;1.45;1.35;;;;;25.00;100931.00;;;;2068040;28;20579;-57
2021/06/24 01:41:10;;;;;;;1.92;1.58;;;;;24.90;100931.00;;;;2068140;28;20210;-57
2021/06/24 01:42:12;;;;;;;1.52;1.40;;;;;24.90;100933.00;;;;2064236;28;20217;-57
2021/06/24 01:43:13;;;;;;;1.48;1.38;;;;;24.90;100931.00;;;;2067018;28;20289;-57
2021/06/24 01:44:33;;;;;;;1.93;1.60;;;;;24.90;100929.00;;;;2067725;28;20219;-57
2021/06/24 01:45:44;;;;;;;1.65;1.45;;;;;24.90;100926.00;;;;2070436;28;20256;-57
2021/06/24 01:46:44;;;;;;;1.30;1.20;;;;;24.90;100926.00;;;;2067613;28;20215;-58
2021/06/24 01:47:44;;;;;;;1.40;1.30;;;;;24.90;100929.00;;;;2071335;28;20214;-58
2021/06/24 01:48:45;;;;;;;1.77;1.67;;;;;24.90;100925.00;;;;2071282;28;20222;-55
2021/06/24 01:49:45;;;;;;;1.50;1.37;;;;;24.90;100917.00;;;;2071301;28;20206;-57
2021/06/24 01:50:45;;;;;;;1.67;1.57;;;;;24.90;100925.00;;;;2063441;28;20778;-57
2021/06/24 01:51:46;;;;;;;1.60;1.50;;;;;24.90;100923.00;;;;2063467;28;20750;-57
2021/06/24 01:52:47;;;;;;;1.50;1.40;;;;;24.90;100922.00;;;;2071260;28;20214;-57
2021/06/24 01:53:47;;;;;;;1.83;1.67;;;;;24.90;100922.00;;;;2071301;28;20218;-57
2021/06/24 01:54:47;;;;;;;2.60;1.60;;;;;24.90;100917.00;;;;2067678;28;20963;-57
2021/06/24 01:55:48;;;;;;;1.43;1.33;;;;;24.90;100919.00;;;;2063135;28;20555;-57
2021/06/24 01:56:48;;;;;;;1.73;1.30;;;;;24.90;100916.00;;;;2063257;28;20289;-57
2021/06/24 01:57:49;;;;;;;2.50;1.63;;;;;24.90;100910.00;;;;2063978;28;20218;-58
2021/06/24 01:58:49;;;;;;;1.43;1.20;;;;;24.90;100919.00;;;;2066173;28;20217;-56
2021/06/24 01:59:49;;;;;;;1.30;1.20;;;;;24.90;100917.00;;;;2063283;28;20218;-57
2021/06/24 02:00:55;;;;;;;1.67;1.57;;;;;24.90;100919.00;;;;2063029;28;20794;-57
2021/06/24 02:01:55;;;;;;;1.50;1.40;;;;;24.90;100920.00;;;;2062331;28;20226;-57
2021/06/24 02:02:56;;;;;;;1.60;1.50;;;;;24.90;100910.00;;;;2063160;28;20226;-57
2021/06/24 02:03:56;;;;;;;1.87;1.40;;;;;24.90;100906.00;;;;2068325;28;20209;-57
2021/06/24 02:04:57;;;;;;;1.50;1.37;;;;;24.80;100910.00;;;;2071342;28;20221;-58
2021/06/24 02:05:57;;;;;;;1.50;1.40;;;;;24.90;100907.00;;;;2068764;28;20211;-56
2021/06/24 02:06:57;;;;;;;1.83;1.67;;;;;24.90;100909.00;;;;2063037;28;20207;-58
2021/06/24 02:07:58;;;;;;;1.57;1.47;;;;;24.90;100910.00;;;;2069894;28;20257;-57
2021/06/24 02:08:58;;;;;;;1.30;1.20;;;;;24.90;100911.00;;;;2066679;28;20277;-57
2021/06/24 02:09:58;;;;;;;1.10;1.00;;;;;24.90;100908.00;;;;2063091;28;20234;-58
2021/06/24 02:10:59;;;;;;;1.50;1.40;;;;;24.90;100900.00;;;;2064055;28;20269;-56
2021/06/24 02:11:59;;;;;;;1.47;1.37;;;;;24.90;100909.00;;;;2066443;28;20210;-56
2021/06/24 02:12:59;;;;;;;1.60;1.37;;;;;24.90;100906.00;;;;2071016;28;20218;-57
2021/06/24 02:14:00;;;;;;;1.80;1.53;;;;;24.90;100906.00;;;;2067471;28;20260;-57
2021/06/24 02:15:00;;;;;;;1.50;1.40;;;;;24.90;100911.00;;;;2071163;28;20225;-59
2021/06/24 02:16:00;;;;;;;1.37;1.27;;;;;24.90;100908.00;;;;2070194;28;20214;-57
2021/06/24 02:17:01;;;;;;;2.20;1.60;;;;;24.90;100900.00;;;;2063165;28;20238;-58
2021/06/24 02:18:01;;;;;;;1.40;1.20;;;;;24.90;100892.00;;;;2063098;28;20211;-58
2021/06/24 02:19:02;;;;;;;1.37;1.27;;;;;24.90;100901.00;;;;2063229;28;20218;-56
2021/06/24 02:20:07;;;;;;;1.47;1.37;;;;;24.90;100905.00;;;;2063163;28;20222;-57
2021/06/24 02:21:07;;;;;;;1.80;1.70;;;;;24.90;100902.00;;;;2062482;28;20207;-56
2021/06/24 02:22:08;;;;;;;1.47;1.37;;;;;24.90;100908.00;;;;2063260;28;20314;-57
2021/06/24 02:23:08;;;;;;;1.40;1.30;;;;;24.90;100902.00;;;;2062859;28;20226;-58
2021/06/24 02:24:09;;;;;;;1.63;1.53;;;;;24.90;100901.00;;;;2069721;28;20209;-58
2021/06/24 02:25:10;;;;;;;1.20;1.10;;;;;24.90;100903.00;;;;2063620;28;20215;-58
2021/06/24 02:26:11;;;;;;;1.57;1.40;;;;;24.90;100901.00;;;;2062496;28;20258;-57
2021/06/24 02:27:11;;;;;;;1.30;1.20;;;;;24.90;100902.00;;;;2063247;28;20542;-56
2021/06/24 02:28:11;;;;;;;1.73;1.20;;;;;24.90;100903.00;;;;2066726;28;20265;-56
2021/06/24 02:29:12;;;;;;;1.67;1.30;;;;;24.90;100900.00;;;;2067625;28;20229;-56
2021/06/24 02:30:13;;;;;;;1.30;1.20;;;;;24.90;100892.00;;;;2061826;28;20233;-57
2021/06/24 02:31:14;;;;;;;1.65;1.55;;;;;24.90;100897.00;;;;2065303;28;20211;-57
2021/06/24 02:32:14;;;;;;;1.50;1.40;;;;;24.90;100892.00;;;;2070496;28;20225;-57
2021/06/24 02:33:16;;;;;;;2.30;1.53;;;;;24.90;100902.00;;;;2063814;28;20314;-57
2021/06/24 02:34:16;;;;;;;1.48;1.35;;;;;24.90;100905.00;;;;2065059;28;20325;-56
2021/06/24 02:35:16;;;;;;;1.70;1.60;;;;;24.90;100896.00;;;;2068918;28;20567;-57
2021/06/24 02:36:17;;;;;;;1.60;1.50;;;;;24.90;100908.00;;;;2070611;28;20281;-57
2021/06/24 02:37:17;;;;;;;1.30;1.20;;;;;24.90;100906.00;;;;2070559;28;20221;-58
2021/06/24 02:38:18;;;;;;;2.20;1.23;;;;;24.90;100897.00;;;;2070315;28;20202;-57
2021/06/24 02:39:18;;;;;;;1.40;1.30;;;;;24.90;100888.00;;;;2070187;28;20676;-58
2021/06/24 02:40:19;;;;;;;1.40;1.30;;;;;24.90;100903.00;;;;2064550;28;20227;-58
2021/06/24 02:41:19;;;;;;;1.47;1.30;;;;;24.90;100888.00;;;;2064868;28;20214;-57
2021/06/24 02:42:20;;;;;;;1.50;1.13;;;;;24.90;100890.00;;;;2066151;28;20229;-57
2021/06/24 02:43:20;;;;;;;1.30;1.20;;;;;24.90;100893.00;;;;2066840;28;20223;-56
2021/06/24 02:44:20;;;;;;;2.30;1.43;;;;;24.90;100892.00;;;;2062701;28;20625;-57
2021/06/24 02:45:21;;;;;;;1.30;1.20;;;;;24.90;100897.00;;;;2071208;28;20218;-58
2021/06/24 02:46:21;;;;;;;1.90;1.57;;;;;24.90;100887.00;;;;2069702;28;20214;-57
2021/06/24 02:47:21;;;;;;;1.37;1.27;;;;;24.90;100900.00;;;;2066936;28;20222;-57
2021/06/24 02:48:22;;;;;;;1.30;1.20;;;;;24.90;100896.00;;;;2065445;28;20218;-56
2021/06/24 02:49:22;;;;;;;1.63;1.50;;;;;24.90;100898.00;;;;2070740;28;20901;-57
2021/06/24 02:50:22;;;;;;;1.43;1.33;;;;;24.90;100884.00;;;;2067377;28;20229;-56
2021/06/24 02:51:23;;;;;;;1.40;1.30;;;;;24.90;100889.00;;;;2066662;28;20218;-57
2021/06/24 02:52:23;;;;;;;1.70;1.60;;;;;24.90;100881.00;;;;2071092;28;20225;-58
2021/06/24 02:53:23;;;;;;;1.37;1.27;;;;;24.90;100880.00;;;;2071061;28;20280;-57
2021/06/24 02:54:24;;;;;;;1.60;1.50;;;;;24.90;100894.00;;;;2071020;28;20225;-57
2021/06/24 02:55:30;;;;;;;1.60;1.50;;;;;24.90;100887.00;;;;2071117;28;20305;-57
2021/06/24 02:56:37;;;;;;;1.30;1.20;;;;;24.90;100896.00;;;;2066383;28;20219;-58
2021/06/24 02:57:37;;;;;;;1.63;1.52;;;;;24.90;100887.00;;;;2065002;28;20270;-59
2021/06/24 02:58:38;;;;;;;1.63;1.50;;;;;24.90;100888.00;;;;2071032;28;20679;-59
2021/06/24 02:59:38;;;;;;;1.63;1.30;;;;;24.90;100889.00;;;;2063316;28;20250;-57
2021/06/24 03:00:39;;;;;;;1.60;1.50;;;;;24.90;100893.00;;;;2062135;28;20302;-54
2021/06/24 03:01:39;;;;;;;1.90;1.47;;;;;24.90;100884.00;;;;2062226;28;20210;-57
2021/06/24 03:02:39;;;;;;;1.70;1.60;;;;;24.90;100883.00;;;;2067585;28;20221;-58
2021/06/24 03:03:40;;;;;;;1.53;1.43;;;;;24.90;100882.00;;;;2070507;28;20217;-57
2021/06/24 03:04:40;;;;;;;1.40;1.30;;;;;24.90;100884.00;;;;2070325;28;20210;-57
2021/06/24 03:05:41;;;;;;;1.60;1.50;;;;;24.90;100866.00;;;;2063463;28;20604;-57
2021/06/24 03:06:41;;;;;;;1.40;1.30;;;;;24.90;100880.00;;;;2065492;28;20211;-56
2021/06/24 03:07:41;;;;;;;2.40;1.53;;;;;24.90;100878.00;;;;2066356;28;20221;-57
2021/06/24 03:08:42;;;;;;;1.53;1.43;;;;;24.90;100886.00;;;;2064459;28;20307;-57
2021/06/24 03:09:42;;;;;;;1.67;1.40;;;;;24.90;100880.00;;;;2064394;28;20264;-57
2021/06/24 03:10:42;;;;;;;1.60;1.50;;;;;24.90;100881.00;;;;2070412;28;20222;-57
2021/06/24 03:11:43;;;;;;;1.63;1.50;;;;;24.90;100879.00;;;;2062662;28;20230;-55
2021/06/24 03:12:44;;;;;;;1.47;1.37;;;;;24.90;100881.00;;;;2062608;28;20219;-57
2021/06/24 03:13:47;;;;;;;1.50;1.40;;;;;24.90;100876.00;;;;2066317;28;20226;-57
2021/06/24 03:14:48;;;;;;;1.42;1.33;;;;;24.90;100881.00;;;;2061645;28;20242;-58
2021/06/24 03:15:48;;;;;;;1.30;1.20;;;;;24.90;100877.00;;;;2062935;28;20212;-57
2021/06/24 03:16:48;;;;;;;1.90;1.80;;;;;24.90;100878.00;;;;2062868;28;20250;-57
2021/06/24 03:17:49;;;;;;;1.73;1.63;;;;;24.90;100878.00;;;;2066748;28;20212;-57
2021/06/24 03:18:49;;;;;;;1.70;1.50;;;;;24.90;100874.00;;;;2063719;28;20207;-58
2021/06/24 03:19:50;;;;;;;1.90;1.50;;;;;24.90;100882.00;;;;2064546;28;20203;-57
2021/06/24 03:20:50;;;;;;;1.80;1.63;;;;;24.90;100884.00;;;;2069208;28;20214;-57
2021/06/24 03:21:50;;;;;;;1.53;1.43;;;;;24.90;100889.00;;;;2069665;28;20206;-57
2021/06/24 03:22:53;;;;;;;1.63;1.40;;;;;24.90;100881.00;;;;2070880;28;20214;-58
2021/06/24 03:23:54;;;;;;;1.98;1.30;;;;;24.90;100882.00;;;;2071181;28;20214;-57
2021/06/24 03:24:54;;;;;;;1.47;1.37;;;;;24.90;100881.00;;;;2071744;28;20222;-57
2021/06/24 03:25:55;;;;;;;1.30;1.20;;;;;24.90;100888.00;;;;2068250;28;20211;-57
2021/06/24 03:26:55;;;;;;;1.65;1.55;;;;;24.90;100878.00;;;;2064369;28;20223;-55
2021/06/24 03:27:56;;;;;;;1.40;1.30;;;;;24.90;100879.00;;;;2064304;28;20342;-58
2021/06/24 03:28:56;;;;;;;1.50;1.40;;;;;24.90;100881.00;;;;2064317;28;20229;-58
2021/06/24 03:29:57;;;;;;;1.63;1.43;;;;;24.90;100885.00;;;;2071863;28;20686;-58
2021/06/24 03:30:57;;;;;;;1.70;1.60;;;;;24.90;100884.00;;;;2071711;28;20253;-57
2021/06/24 03:31:57;;;;;;;1.77;1.50;;;;;24.90;100877.00;;;;2063805;28;20600;-57
2021/06/24 03:32:58;;;;;;;1.47;1.23;;;;;24.90;100885.00;;;;2064479;28;20631;-56
2021/06/24 03:33:58;;;;;;;1.50;1.40;;;;;24.90;100882.00;;;;2064380;28;20285;-57
2021/06/24 03:34:59;;;;;;;1.70;1.40;;;;;24.90;100877.00;;;;2067309;28;20218;-57
2021/06/24 03:35:59;;;;;;;1.33;1.23;;;;;24.90;100878.00;;;;2068680;28;20488;-57
2021/06/24 03:36:59;;;;;;;1.43;1.33;;;;;24.90;100873.00;;;;2068192;28;20215;-57
2021/06/24 03:38:00;;;;;;;1.60;1.50;;;;;24.90;100872.00;;;;2065075;28;20211;-56
2021/06/24 03:39:00;;;;;;;1.13;1.03;;;;;24.90;100878.00;;;;2070987;28;20218;-58
2021/06/24 03:40:01;;;;;;;1.67;1.50;;;;;24.90;100872.00;;;;2064321;28;20246;-57
2021/06/24 03:41:02;;;;;;;1.60;1.50;;;;;24.90;100880.00;;;;2067568;28;20229;-59
2021/06/24 03:42:02;;;;;;;1.70;1.60;;;;;24.90;100868.00;;;;2067279;28;20285;-56
2021/06/24 03:43:03;;;;;;;1.40;1.30;;;;;24.90;100863.00;;;;2066969;28;20496;-57
2021/06/24 03:44:03;;;;;;;1.53;1.43;;;;;24.90;100870.00;;;;2072399;28;20218;-57
2021/06/24 03:45:04;;;;;;;1.40;1.30;;;;;24.90;100867.00;;;;2072296;28;20293;-57
2021/06/24 03:46:04;;;;;;;1.60;1.50;;;;;24.90;100868.00;;;;2072345;28;20712;-57
2021/06/24 03:47:05;;;;;;;1.60;1.50;;;;;24.90;100874.00;;;;2072218;28;20229;-57
2021/06/24 03:48:06;;;;;;;1.27;1.17;;;;;24.90;100874.00;;;;2072399;28;20272;-58
2021/06/24 03:49:06;;;;;;;1.52;1.40;;;;;24.80;100873.00;;;;2068393;28;20581;-57
2021/06/24 03:50:08;;;;;;;1.47;1.23;;;;;24.80;100874.00;;;;2071569;28;20301;-58
2021/06/24 03:51:08;;;;;;;1.40;1.30;;;;;24.90;100866.00;;;;2063358;28;20215;-57
2021/06/24 03:52:08;;;;;;;1.40;1.30;;;;;24.80;100871.00;;;;2063909;28;20229;-58
2021/06/24 03:53:09;;;;;;;1.50;1.40;;;;;24.80;100870.00;;;;2064263;28;20223;-57
2021/06/24 03:54:09;;;;;;;1.40;1.30;;;;;24.90;100869.00;;;;2067623;28;20218;-58
2021/06/24 03:55:10;;;;;;;1.47;1.37;;;;;24.90;100876.00;;;;2071723;28;20301;-59
2021/06/24 03:56:11;;;;;;;1.73;1.50;;;;;24.90;100874.00;;;;2071653;28;20237;-58
2021/06/24 03:57:11;;;;;;;1.47;1.33;;;;;24.90;100875.00;;;;2071759;28;20450;-61
2021/06/24 03:58:12;;;;;;;1.43;1.33;;;;;24.90;100876.00;;;;2070372;28;20214;-59
2021/06/24 03:59:13;;;;;;;1.77;1.33;;;;;24.80;100881.00;;;;2064251;28;20219;-58
2021/06/24 04:00:14;;;;;;;1.30;1.20;;;;;24.90;100878.00;;;;2064098;28;20216;-57
2021/06/24 04:01:14;;;;;;;1.67;1.57;;;;;24.90;100870.00;;;;2063503;28;20760;-57
2021/06/24 04:02:14;;;;;;;2.07;1.70;;;;;24.90;100876.00;;;;2064309;28;20632;-56
2021/06/24 04:03:15;;;;;;;1.70;1.60;;;;;24.90;100882.00;;;;2069366;28;20556;-57
2021/06/24 04:04:15;;;;;;;1.60;1.50;;;;;24.90;100876.00;;;;2072226;28;20218;-58
2021/06/24 04:05:15;;;;;;;1.50;1.40;;;;;24.90;100880.00;;;;2065951;28;20210;-57
2021/06/24 04:06:16;;;;;;;1.83;1.73;;;;;24.90;100875.00;;;;2067433;28;20210;-58
2021/06/24 04:07:16;;;;;;;1.97;1.40;;;;;24.90;100877.00;;;;2064218;28;20313;-55
2021/06/24 04:08:17;;;;;;;1.53;1.43;;;;;24.80;100881.00;;;;2063262;28;20234;-56
2021/06/24 04:09:17;;;;;;;1.43;1.33;;;;;24.90;100879.00;;;;2079700;28;20211;-57
2021/06/24 04:10:17;;;;;;;1.90;1.40;;;;;24.80;100881.00;;;;2070993;28;20567;-57
2021/06/24 04:11:18;;;;;;;1.70;1.60;;;;;24.90;100879.00;;;;2069492;28;21115;-57
2021/06/24 04:12:18;;;;;;;1.37;1.27;;;;;24.90;100874.00;;;;2068907;28;20214;-58
2021/06/24 04:13:18;;;;;;;1.83;1.73;;;;;24.80;100866.00;;;;2064745;28;20229;-60
2021/06/24 04:14:19;;;;;;;1.70;1.50;;;;;24.90;100875.00;;;;2064030;28;20211;-57
2021/06/24 04:15:19;;;;;;;1.57;1.47;;;;;24.80;100871.00;;;;2063941;28;20566;-57
2021/06/24 04:16:19;;;;;;;1.17;1.10;;;;;24.90;100867.00;;;;2064087;28;20227;-57
2021/06/24 04:17:20;;;;;;;1.50;1.30;;;;;24.90;100867.00;;;;2063888;28;20210;-58
2021/06/24 04:18:20;;;;;;;2.43;1.70;;;;;24.90;100862.00;;;;2064048;28;20206;-59
2021/06/24 04:19:20;;;;;;;1.70;1.60;;;;;24.90;100870.00;;;;2063992;28;20289;-59
2021/06/24 04:20:21;;;;;;;1.40;1.30;;;;;24.90;100863.00;;;;2064000;28;20218;-59
2021/06/24 04:21:21;;;;;;;1.40;1.30;;;;;24.90;100874.00;;;;2063653;28;20747;-57
2021/06/24 04:22:22;;;;;;;1.50;1.40;;;;;24.90;100872.00;;;;2063594;28;20704;-57
2021/06/24 04:23:22;;;;;;;1.87;1.73;;;;;24.90;100870.00;;;;2064173;28;20735;-57
2021/06/24 04:24:22;;;;;;;2.13;1.53;;;;;24.80;100860.00;;;;2063983;28;20594;-57
2021/06/24 04:25:23;;;;;;;1.53;1.43;;;;;24.90;100873.00;;;;2063920;28;20256;-57
2021/06/24 04:26:23;;;;;;;1.80;1.50;;;;;24.90;100866.00;;;;2064056;28;20211;-56
2021/06/24 04:27:23;;;;;;;1.50;1.40;;;;;24.90;100865.00;;;;2063498;28;20227;-58
2021/06/24 04:28:24;;;;;;;1.57;1.43;;;;;24.90;100855.00;;;;2065391;28;20257;-57
2021/06/24 04:29:24;;;;;;;1.30;1.20;;;;;24.90;100858.00;;;;2071983;28;20210;-57
2021/06/24 04:30:25;;;;;;;1.70;1.60;;;;;24.90;100864.00;;;;2071715;28;20206;-57
2021/06/24 04:31:25;;;;;;;1.50;1.40;;;;;24.80;100861.00;;;;2062660;28;20215;-58
2021/06/24 04:32:25;;;;;;;1.63;1.53;;;;;24.90;100862.00;;;;2067754;28;20214;-57
2021/06/24 04:33:25;;;;;;;1.50;1.40;;;;;24.90;100862.00;;;;2059984;28;20211;-58
2021/06/24 04:34:26;;;;;;;1.40;1.30;;;;;24.90;100861.00;;;;2066490;28;20207;-57
2021/06/24 04:35:27;;;;;;;1.53;1.43;;;;;24.80;100865.00;;;;2063034;28;20282;-58
2021/06/24 04:36:27;;;;;;;1.93;1.50;;;;;24.90;100868.00;;;;2069284;28;20213;-57
2021/06/24 04:37:28;;;;;;;1.37;1.27;;;;;24.90;100861.00;;;;2067410;28;20994;-57
2021/06/24 04:38:28;;;;;;;1.63;1.30;;;;;24.90;100859.00;;;;2071218;28;20301;-59
2021/06/24 04:39:28;;;;;;;1.50;1.33;;;;;24.90;100864.00;;;;2067594;28;20587;-57
2021/06/24 04:40:29;;;;;;;2.20;1.60;;;;;24.80;100862.00;;;;2063736;28;20257;-57
2021/06/24 04:41:29;;;;;;;1.70;1.60;;;;;24.80;100862.00;;;;2063333;28;20203;-57
2021/06/24 04:42:30;;;;;;;1.80;1.70;;;;;24.80;100860.00;;;;2067196;28;20206;-57
2021/06/24 04:43:31;;;;;;;1.50;1.40;;;;;24.80;100856.00;;;;2066355;28;20767;-56
2021/06/24 04:44:31;;;;;;;1.73;1.60;;;;;24.90;100858.00;;;;2067667;28;20218;-58
2021/06/24 04:45:31;;;;;;;1.50;1.40;;;;;24.90;100853.00;;;;2068035;28;20210;-58
2021/06/24 04:46:32;;;;;;;1.27;1.17;;;;;24.80;100853.00;;;;2067285;28;20223;-57
2021/06/24 04:47:32;;;;;;;1.60;1.50;;;;;24.80;100860.00;;;;2067542;28;20691;-57
2021/06/24 04:48:33;;;;;;;1.50;1.40;;;;;24.80;100855.00;;;;2063998;28;20214;-57
2021/06/24 04:49:33;;;;;;;1.70;1.60;;;;;24.80;100855.00;;;;2063636;28;20251;-57
2021/06/24 04:50:33;;;;;;;1.63;1.53;;;;;24.80;100848.00;;;;2067272;28;20226;-58
2021/06/24 04:51:34;;;;;;;1.50;1.40;;;;;24.70;100857.00;;;;2070750;28;20759;-57
2021/06/24 04:52:34;;;;;;;1.40;1.30;;;;;24.90;100856.00;;;;2064715;28;20308;-57
2021/06/24 04:53:34;;;;;;;1.40;1.27;;;;;24.80;100856.00;;;;2071725;28;20222;-57
2021/06/24 04:54:35;;;;;;;1.70;1.40;;;;;24.80;100857.00;;;;2071712;28;20225;-57
2021/06/24 04:55:41;;;;;;;1.57;1.40;;;;;24.80;100863.00;;;;2071475;28;20221;-58
2021/06/24 04:56:42;;;;;;;1.63;1.50;;;;;24.80;100855.00;;;;2071756;28;20225;-57
2021/06/24 04:57:42;;;;;;;2.33;1.60;;;;;24.80;100856.00;;;;2071428;28;20599;-55
2021/06/24 04:58:42;;;;;;;1.90;1.50;;;;;24.80;100846.00;;;;2071810;28;20652;-57
2021/06/24 04:59:43;;;;;;;2.13;1.63;;;;;24.80;100851.00;;;;2065966;28;20298;-57
2021/06/24 05:00:43;;;;;;;1.90;1.70;;;;;24.80;100861.00;;;;2063794;28;20227;-57